Childress, Arkansas
Current Conditions -  °F | °C
As of 4:21 AM on Tuesday 21 Oct 2014 (Local Time) from KSRC Reporting Station
Haze Haze  
Wind Chill: 52°   Ceiling: Unl
Heat Index: 52°   Visibility: 1.2mi
Dew Point: 52°   Wind: 0mph
Humidity: 100%   Direction: NA
Pressure: 30.06"   Gusts: NA
Location:  34.9712°N, 91.571°W
Report Text: KSRC 210921Z AUTO 00000KT 1 1/4SM BR CLR 11/11 A3006 RMK AO2 TSNO
Loading
Personal Weather Stations






























Interactive Weather Map
Tropical Storm Tracking
New forecast layout! Learn more

10-Day Weather Forecast

Advertisements
Track Severe Weather on mobile